Flight Track Log - Related Links

Times and Time Zones

All times are in EDT time to prevent confusion due to time zone crossing. See the UAL115 flight status page for this flight to view local times or setup timezone preferences in your user account.

Time Position Orientation Groundspeed Altitude Reporting Facility
EDT Latitude Longitude Course Direction KTS MPH feet Rate Location/Type
Sun 01:18:48 PM 51.4591 -0.5243 271° West 166 191 2,100  Level FlightAware ADS-B
Sun 01:18:54 PM 51.4591 -0.5320 270° West 170 196 2,200 2,000 Climbing FlightAware ADS-B
Sun 01:19:09 PM 51.4593 -0.5514 271° West 171 197 2,800 2,160 Climbing FlightAware ADS-B
Sun 01:19:19 PM 51.4595 -0.5636 272° West 175 201 3,100 1,440 Climbing FlightAware ADS-B
Sun 01:19:34 PM 51.4598 -0.5843 271° West 191 220 3,400 1,250 Climbing FlightAware ADS-B
Sun 01:19:43 PM 51.4600 -0.5969 271° West 200 230 3,600 1,200 Climbing FlightAware ADS-B
Sun 01:19:49 PM 51.4600 -0.6060 270° West 208 239 3,700 1,636 Climbing FlightAware ADS-B
Sun 01:19:54 PM 51.4594 -0.6149 264° West 214 246 3,900 1,636 Climbing FlightAware ADS-B
Sun 01:20:00 PM 51.4584 -0.6235 259° West 218 251 4,000 1,333 Climbing FlightAware ADS-B
Sun 01:20:03 PM 51.4575 -0.6281 253° West 221 254 4,100 1,895 Climbing FlightAware ADS-B
Sun 01:20:19 PM 51.4524 -0.6532 252° West 232 267 4,600 1,846 Climbing FlightAware ADS-B
Sun 01:20:29 PM 51.4488 -0.6705 252° West 242 278 4,900 2,143 Climbing FlightAware ADS-B
Sun 01:20:33 PM 51.4469 -0.6779 247° West 247 284 5,100 2,000 Climbing FlightAware ADS-B
Sun 01:20:38 PM 51.4445 -0.6846 240° Southwest 249 287 5,200 2,250 Climbing FlightAware ADS-B
Sun 01:20:41 PM 51.4426 -0.6891 236° Southwest 251 289 5,400 3,000 Climbing FlightAware ADS-B
Sun 01:20:44 PM 51.4400 -0.6940 230° Southwest 253 291 5,500 2,250 Climbing FlightAware ADS-B
Sun 01:20:49 PM 51.4356 -0.7008 224° Southwest 256 295 5,700 2,700 Climbing FlightAware ADS-B
Sun 01:21:04 PM 51.4218 -0.7185 219° Southwest 262 302 6,400 2,800 Climbing FlightAware ADS-B
Sun 01:21:19 PM 51.4078 -0.7370 220° Southwest 263 303 7,100 2,710 Climbing FlightAware ADS-B
Sun 01:21:35 PM 51.3929 -0.7570 220° Southwest 265 305 7,800 2,516 Climbing FlightAware ADS-B
Sun 01:21:50 PM 51.3784 -0.7771 221° Southwest 271 312 8,400 2,710 Climbing FlightAware ADS-B
Sun 01:22:06 PM 51.3633 -0.7975 220° Southwest 270 311 9,200 3,097 Climbing FlightAware ADS-B
Sun 01:22:21 PM 51.3487 -0.8168 219° Southwest 271 312 10,000 2,250 Climbing FlightAware ADS-B
Sun 01:22:46 PM 51.3244 -0.8494 220° Southwest 289 333 10,700 1,527 Climbing FlightAware ADS-B
Sun 01:23:16 PM 51.2931 -0.8941 222° Southwest 314 361 11,400 1,672 Climbing FlightAware ADS-B
Sun 01:23:47 PM 51.2584 -0.9424 221° Southwest 328 377 12,400 130 Climbing FlightAware ADS-B
Sun 01:24:02 PM 51.2461 -0.9627 221° Southwest 354 407 11,500 2,516 Descending FlightAware UK
Sun 01:24:18 PM 51.2217 -0.9920 221° Southwest 334 384 13,700 4,435 Climbing FlightAware ADS-B
Sun 01:24:48 PM 51.1860 -1.0396 220° Southwest 339 390 14,900 2,217 Climbing FlightAware ADS-B
Sun 01:25:04 PM 51.1673 -1.0650 220° Southwest 343 395 15,400 2,000 Climbing FlightAware ADS-B
Sun 01:25:12 PM 51.1587 -1.0789 225° Southwest 342 394 15,700 -643 Climbing FlightAware ADS-B
Sun 01:25:32 PM 51.1430 -1.1134 225° Southwest 374 430 15,100 2,200 Descending FlightAware UK
Sun 01:25:42 PM 51.1280 -1.1373 225° Southwest 348 400 16,800 3,750 Climbing FlightAware ADS-B
Sun 01:26:12 PM 51.0967 -1.1989 231° Southwest 360 414 17,600 1,680 Climbing FlightAware ADS-B
Sun 01:26:32 PM 51.0751 -1.2396 230° Southwest 368 423 18,200 -632 Climbing FlightAware ADS-B
Sun 01:26:50 PM 51.0600 -1.2706 230° Southwest 390 449 17,200 1,800 Descending FlightAware UK
Sun 01:27:02 PM 51.0404 -1.2996 230° Southwest 374 430 19,100 4,047 Climbing FlightAware ADS-B
Sun 01:27:33 PM 51.0052 -1.3620 228° Southwest 378 435 20,100 1,902 Climbing FlightAware ADS-B
Sun 01:27:43 PM 50.9953 -1.3841 235° Southwest 377 434 20,400 1,800 Climbing FlightAware ADS-B
Sun 01:28:13 PM 50.9707 -1.4579 242° Southwest 381 438 21,300 109 Climbing FlightAware ADS-B
Sun 01:28:38 PM 50.9556 -1.5165 242° Southwest 412 474 20,500 1,818 Descending FlightAware UK
Sun 01:28:46 PM 50.9446 -1.5421 242° Southwest 386 444 22,300 4,378 Climbing FlightAware ADS-B
Sun 01:29:15 PM 50.9228 -1.6147 245° Southwest 387 445 23,200 1,846 Climbing FlightAware ADS-B
Sun 01:29:38 PM 50.9079 -1.6779 250° West 390 449 23,900 -585 Climbing FlightAware ADS-B
Sun 01:29:56 PM 50.9030 -1.7206 250° West 424 488 22,800 1,355 Descending FlightAware UK
Sun 01:30:09 PM 50.8921 -1.7613 250° West 395 455 24,600 3,568 Climbing FlightAware ADS-B
Sun 01:30:33 PM 50.8797 -1.8282 254° West 402 463 25,000 -1,610 Climbing FlightAware ADS-B
Sun 01:30:50 PM 50.8784 -1.8719 254° West 434 499 23,500 1,125 Descending FlightAware UK
Sun 01:31:05 PM 50.8710 -1.9219 254° West 402 463 25,600 1,600 Climbing FlightAware ADS-B
Sun 01:31:20 PM 50.8722 -1.9591 254° West 430 495 24,300 -1,273 Descending FlightAware UK
Sun 01:31:38 PM 50.8685 -2.0109 264° West 428 493 24,900 1,667 Climbing FlightAware UK
Sun 01:31:56 PM 50.8637 -2.0629 262° West 430 495 25,300 5,250 Climbing FlightAware UK
Sun 01:32:02 PM 50.8573 -2.0866 262° West 399 459 27,000 1,304 Climbing FlightAware ADS-B
Sun 01:32:19 PM 50.8559 -2.1322 262° West 434 499 25,800 1,105 Descending FlightAware UK
Sun 01:32:40 PM 50.8459 -2.1975 262° West 408 470 27,700 857 Climbing FlightAware ADS-B
Sun 01:33:01 PM 50.8429 -2.2567 262° West 448 516 26,400 -1,538 Descending FlightAware UK
Sun 01:33:19 PM 50.8371 -2.3117 260° West 454 522 26,700 4,385 Climbing FlightAware UK
Sun 01:33:27 PM 50.8320 -2.3270 260° West 424 488 28,300 1,250 Climbing FlightAware ADS-B
Sun 01:33:43 PM 50.8286 -2.3852 260° West 454 522 27,200 -1,412 Descending FlightAware UK
Sun 01:34:01 PM 50.8217 -2.4398 259° West 460 529 27,500 4,138 Climbing FlightAware UK
Sun 01:34:12 PM 50.8160 -2.4650 259° West 431 496 29,200 5,700 Climbing FlightAware ADS-B
Sun 01:34:21 PM 50.8100 -2.5063 257° West 415 478 29,400 -2,640 Climbing FlightAware ADS-B
Sun 01:34:37 PM 50.8065 -2.5516 257° West 462 532 28,100 1,154 Descending FlightAware UK
Sun 01:34:47 PM 50.7987 -2.5892 257° West 439 505 29,900 1,000 Climbing FlightAware ADS-B
Sun 01:35:07 PM 50.7927 -2.6454 257° West 466 536 28,600 -1,579 Descending FlightAware UK
Sun 01:35:25 PM 50.7833 -2.7017 255° West 466 536 28,900 4,560 Climbing FlightAware UK
Sun 01:35:32 PM 50.7790 -2.7160 255° West 449 517 30,500 6,750 Climbing FlightAware ADS-B
Sun 01:35:41 PM 50.7716 -2.7574 254° West 442 509 30,700 1,200 Climbing FlightAware ADS-B
Sun 01:36:12 PM 50.7549 -2.8563 255° West 453 521 31,300 -600 Climbing FlightAware ADS-B
Sun 01:36:31 PM 50.7474 -2.9113 255° West 468 539 30,200 1,297 Descending FlightAware UK
Sun 01:36:49 PM 50.7354 -2.9756 255° West 450 518 32,100 1,167 Climbing FlightAware ADS-B
Sun 01:37:07 PM 50.7288 -3.0254 255° West 466 536 30,900 1,091 Descending FlightAware UK
Sun 01:37:22 PM 50.7210 -3.0620 256° West 448 516 32,700 1,333 Climbing FlightAware ADS-B
Sun 01:37:25 PM 50.7196 -3.0823 256° West 468 539 31,300 1,500 Descending FlightAware UK
Sun 01:37:42 PM 50.7083 -3.1430 256° West 447 514 33,200 1,333 Climbing FlightAware ADS-B
Sun 01:38:01 PM 50.7013 -3.1950 256° West 464 534 32,100 -1,297 Descending FlightAware UK
Sun 01:38:19 PM 50.6923 -3.2509 256° West 466 536 32,400 3,167 Climbing FlightAware UK
Sun 01:38:37 PM 50.6804 -3.3138 256° West 444 511 34,000 167 Climbing FlightAware ADS-B
Sun 01:38:55 PM 50.6737 -3.3630 256° West 466 536 32,500  Descending FlightAware UK
Sun 01:39:14 PM 50.6612 -3.4291 256° West 444 511 34,000  Climbing FlightAware ADS-B
Sun 01:39:31 PM 50.6547 -3.4750 256° West 462 532 32,500 -2,571 Descending FlightAware UK
Sun 01:39:49 PM 50.6452 -3.5309 255° West 464 534 32,500 2,903 Level FlightAware UK
Sun 01:40:02 PM 50.6362 -3.5780 255° West 443 510 34,000  Climbing FlightAware ADS-B
Sun 01:40:19 PM 50.6293 -3.6236 255° West 464 534 32,500  Descending FlightAware UK
Sun 01:40:39 PM 50.6162 -3.6952 255° West 445 512 34,000  Climbing FlightAware ADS-B
Sun 01:40:55 PM 50.6101 -3.7360 255° West 464 534 32,500  Descending FlightAware UK
Sun 01:41:17 PM 50.5963 -3.8114 255° West 446 513 34,000 1,698 Climbing FlightAware ADS-B
Sun 01:41:48 PM 50.5793 -3.9110 255° West 446 513 34,000 -1,607 Level FlightAware ADS-B
Sun 01:42:13 PM 50.5678 -3.9801 255° West 466 536 32,500  Descending FlightAware UK
Sun 01:42:36 PM 50.5534 -4.0609 255° West 446 513 34,000  Climbing FlightAware ADS-B
Sun 01:42:54 PM 50.5449 -4.1113 255° West 466 536 32,500 -2,143 Descending FlightAware UK
Sun 01:43:18 PM 50.5315 -4.1867 254° West 466 536 32,500  Level FlightAware UK
Sun 01:43:36 PM 50.5215 -4.2434 255° West 468 539 32,500 3,103 Level FlightAware UK
Sun 01:43:47 PM 50.5150 -4.2780 255° West 451 519 34,000  Climbing FlightAware ADS-B
Sun 01:44:06 PM 50.5048 -4.3378 255° West 468 539 32,500  Descending FlightAware UK
Sun 01:44:22 PM 50.4960 -4.3890 255° West 449 517 34,000  Climbing FlightAware ADS-B
Sun 01:44:48 PM 50.4814 -4.4699 255° West 466 536 32,500  Descending FlightAware UK
Sun 01:45:07 PM 50.4710 -4.5250 255° West 449 517 34,000  Climbing FlightAware ADS-B
Sun 01:45:24 PM 50.4610 -4.5827 255° West 466 536 32,500 -2,571 Descending FlightAware UK
Sun 01:45:42 PM 50.4508 -4.6391 254° West 466 536 32,500 3,214 Level FlightAware UK
Sun 01:45:52 PM 50.4460 -4.6660 254° West 451 519 34,000  Climbing FlightAware ADS-B
Sun 01:46:12 PM 50.4338 -4.7330 254° West 464 534 32,500  Descending FlightAware UK
Sun 01:46:32 PM 50.4230 -4.7930 254° West 452 520 34,000  Climbing FlightAware ADS-B
Sun 01:46:48 PM 50.4133 -4.8453 254° West 462 532 32,500 -2,647 Descending FlightAware UK
Sun 01:47:06 PM 50.4030 -4.9019 254° West 462 532 32,500 3,750 Level FlightAware UK
Sun 01:47:12 PM 50.4000 -4.9200 254° West 453 521 34,000  Climbing FlightAware ADS-B
Sun 01:47:30 PM 50.3893 -4.9775 254° West 464 534 32,500  Descending FlightAware UK
Sun 01:47:57 PM 50.3740 -5.0620 254° West 454 522 34,000  Climbing FlightAware ADS-B
Sun 01:48:12 PM 50.3648 -5.1101 254° West 462 532 32,500 -2,727 Descending FlightAware UK
Sun 01:48:30 PM 50.3542 -5.1670 254° West 462 532 32,500 3,600 Level FlightAware UK
Sun 01:48:37 PM 50.3500 -5.1910 254° West 455 524 34,000  Climbing FlightAware ADS-B
Sun 01:49:00 PM 50.3363 -5.2619 254° West 464 534 32,500 -2,195 Descending FlightAware UK
Sun 01:49:18 PM 50.3256 -5.3188 254° West 468 539 32,500 4,091 Level FlightAware UK
Sun 01:49:22 PM 50.3240 -5.3330 254° West 457 526 34,000  Climbing FlightAware ADS-B
Sun 01:49:42 PM 50.3114 -5.3949 254° West 466 536 32,500 -2,368 Descending FlightAware UK
Sun 01:50:00 PM 50.3007 -5.4520 254° West 466 536 32,500 4,500 Level FlightAware UK
Sun 01:50:02 PM 50.3000 -5.4610 254° West 457 526 34,000  Climbing FlightAware ADS-B
Sun 01:50:18 PM 50.2898 -5.5091 254° West 464 534 32,500 -2,647 Descending FlightAware UK
Sun 01:50:36 PM 50.2789 -5.5661 253° West 464 534 32,500 3,750 Level FlightAware UK
Sun 01:50:42 PM 50.2770 -5.5810 253° West 458 527 34,000  Climbing FlightAware ADS-B
Sun 01:51:00 PM 50.2644 -5.6423 253° West 464 534 32,500 -2,500 Descending FlightAware UK
Sun 01:51:18 PM 50.2535 -5.6993 253° West 466 536 32,500 3,333 Level FlightAware UK
Sun 01:51:27 PM 50.2490 -5.7270 253° West 460 529 34,000  Climbing FlightAware ADS-B
Sun 01:51:42 PM 50.2389 -5.7755 253° West 466 536 32,500 -2,727 Descending FlightAware UK
Sun 01:52:00 PM 50.2279 -5.8327 253° West 466 536 32,500 3,600 Level FlightAware UK
Sun 01:52:07 PM 50.2240 -5.8550 253° West 460 529 34,000  Climbing FlightAware ADS-B
Sun 01:52:24 PM 50.2132 -5.9090 253° West 464 534 32,500 -2,571 Descending FlightAware UK
Sun 01:52:42 PM 50.2023 -5.9654 253° West 466 536 32,500 3,913 Level FlightAware UK
Sun 01:52:47 PM 50.2000 -5.9800 253° West 459 528 34,000  Climbing FlightAware ADS-B
Sun 01:53:06 PM 50.1876 -6.0415 253° West 466 536 32,500 -2,432 Descending FlightAware UK
Sun 01:53:24 PM 50.1764 -6.0985 253° West 466 536 32,500 3,462 Level FlightAware UK
Sun 01:53:32 PM 50.1730 -6.1220 253° West 460 529 34,000  Climbing FlightAware ADS-B
Sun 01:53:48 PM 50.1615 -6.1745 253° West 468 539 32,500 -2,647 Descending FlightAware UK
Sun 01:54:06 PM 50.1502 -6.2316 253° West 466 536 32,500 3,750 Level FlightAware UK
Sun 01:54:12 PM 50.1470 -6.2500 253° West 461 531 34,000  Climbing FlightAware ADS-B
Sun 01:54:30 PM 50.1352 -6.3076 253° West 466 536 32,500 -2,500 Descending FlightAware UK
Sun 01:54:48 PM 50.1239 -6.3647 253° West 464 534 32,500 3,333 Level FlightAware UK
Sun 01:54:57 PM 50.1180 -6.3960 253° West 461 531 34,000  Climbing FlightAware ADS-B
Sun 01:55:12 PM 50.1088 -6.4406 253° West 464 534 32,500 -2,727 Descending FlightAware UK
Sun 01:55:30 PM 50.0976 -6.4976 253° West 464 534 32,500 3,600 Level FlightAware UK
Sun 01:55:37 PM 50.0940 -6.5170 253° West 461 531 34,000  Climbing FlightAware ADS-B
Sun 01:55:54 PM 50.0824 -6.5736 253° West 464 534 32,500 -2,571 Descending FlightAware UK
Sun 01:56:12 PM 50.0709 -6.6306 253° West 464 534 32,500 3,913 Level FlightAware UK
Sun 01:56:17 PM 50.0680 -6.6460 253° West 462 532 34,000  Climbing FlightAware ADS-B
Sun 01:56:36 PM 50.0556 -6.7065 253° West 466 536 32,500 -2,432 Descending FlightAware UK
Sun 01:56:54 PM 50.0440 -6.7634 252° West 466 536 32,500 3,462 Level FlightAware UK
Sun 01:57:02 PM 50.0400 -6.7870 252° West 462 532 34,000  Climbing FlightAware ADS-B
Sun 01:57:18 PM 50.0286 -6.8393 252° West 468 539 32,500 -2,647 Descending FlightAware UK
Sun 01:57:36 PM 50.0170 -6.8962 252° West 466 536 32,500 3,103 Level FlightAware UK
Sun 01:57:47 PM 50.0100 -6.9320 252° West 462 532 34,000  Climbing FlightAware ADS-B
Sun 01:58:06 PM 49.9978 -6.9912 252° West 468 539 32,500 -2,432 Descending FlightAware UK
Sun 01:58:24 PM 49.9862 -7.0474 252° West 468 539 32,500 4,286 Level FlightAware UK
Sun 01:58:27 PM 49.9840 -7.0590 252° West 462 532 34,000  Climbing FlightAware ADS-B
Sun 01:58:42 PM 49.9745 -7.1042 252° West 468 539 32,500 -2,727 Descending FlightAware UK
Sun 01:59:00 PM 49.9627 -7.1610 252° West 468 539 32,500 3,600 Level FlightAware UK
Sun 01:59:07 PM 49.9590 -7.1830 252° West 462 532 34,000  Climbing FlightAware ADS-B
Sun 01:59:24 PM 49.9470 -7.2367 252° West 466 536 32,500 -2,571 Descending FlightAware UK
Sun 01:59:42 PM 49.9353 -7.2934 252° West 466 536 32,500 3,214 Level FlightAware UK
Sun 01:59:52 PM 49.9290 -7.3270 252° West 462 532 34,000  Climbing FlightAware ADS-B
Sun 02:00:12 PM 49.9156 -7.3879 252° West 466 536 32,500  Descending FlightAware UK
Sun 02:00:32 PM 49.9030 -7.4480 252° West 462 532 34,000  Climbing FlightAware ADS-B
Sun 02:00:48 PM 49.8920 -7.5012 252° West 466 536 32,500 -2,647 Descending FlightAware UK
Sun 02:01:06 PM 49.8801 -7.5577 252° West 466 536 32,500 3,103 Level FlightAware UK
Sun 02:01:17 PM 49.8740 -7.5890 252° West 462 532 34,000  Climbing FlightAware ADS-B
Sun 02:01:36 PM 49.8602 -7.6520 252° West 464 534 32,500 -2,432 Descending FlightAware UK
Sun 02:01:54 PM 49.8481 -7.7086 252° West 464 534 32,500 4,286 Level FlightAware UK
Sun 02:01:57 PM 49.8490 -7.7070 252° West 464 534 34,000  Climbing FlightAware ADS-B
Sun 02:02:12 PM 49.8361 -7.7652 252° West 462 532 32,500 -2,727 Descending FlightAware UK
Sun 02:02:30 PM 49.8241 -7.8218 252° West 462 532 32,500 3,600 Level FlightAware UK
Sun 02:02:37 PM 49.8190 -7.8460 252° West 464 534 34,000  Climbing FlightAware ADS-B
Sun 02:02:54 PM 49.8079 -7.8973 252° West 464 534 32,500 -2,571 Descending FlightAware UK
Sun 02:03:12 PM 49.7958 -7.9540 252° West 464 534 32,500 3,214 Level FlightAware UK
Sun 02:03:22 PM 49.7890 -7.9840 252° West 466 536 34,000  Climbing FlightAware ADS-B
Sun 02:03:42 PM 49.7755 -8.0486 252° West 464 534 32,500  Descending FlightAware UK
Sun 02:03:52 PM 49.7690 -8.0750 252° West 466 536 34,000  Climbing FlightAware ADS-B
Sun 02:04:12 PM 49.7551 -8.1426 252° West 464 534 32,500 -2,368 Descending FlightAware UK
Sun 02:04:30 PM 49.7427 -8.1995 251° West 464 534 32,500 3,000 Level FlightAware UK
Sun 02:04:42 PM 49.7360 -8.2280 251° West 467 537 34,000  Climbing FlightAware ADS-B
Sun 02:05:00 PM 49.7221 -8.2942 251° West 464 534 32,500 -2,500 Descending FlightAware UK
Sun 02:05:18 PM 49.7096 -8.3512 251° West 466 536 32,500 3,333 Level FlightAware UK
Sun 02:05:27 PM 49.7050 -8.3690 251° West 466 536 34,000  Climbing FlightAware ADS-B
Sun 02:05:42 PM 49.6929 -8.4272 251° West 466 536 32,500 -2,727 Descending FlightAware UK
Sun 02:06:00 PM 49.6805 -8.4843 251° West 466 536 32,500 3,600 Level FlightAware UK
Sun 02:06:07 PM 49.6760 -8.5010 251° West 467 537 34,000  Climbing FlightAware ADS-B
Sun 02:06:24 PM 49.6637 -8.5604 251° West 466 536 32,500 -2,571 Descending FlightAware UK
Sun 02:06:42 PM 49.6510 -8.6175 251° West 466 536 32,500 3,913 Level FlightAware UK
Sun 02:06:47 PM 49.6480 -8.6270 251° West 469 540 34,000  Climbing FlightAware ADS-B
Sun 02:07:06 PM 49.6340 -8.6938 251° West 466 536 32,500 -2,432 Descending FlightAware UK
Sun 02:07:24 PM 49.6212 -8.7510 251° West 466 536 32,500 3,462 Level FlightAware UK
Sun 02:07:32 PM 49.6170 -8.7660 251° West 470 541 34,000  Climbing FlightAware ADS-B
Sun 02:07:48 PM 49.6041 -8.8274 251° West 464 534 32,500 -2,647 Descending FlightAware UK
Sun 02:08:06 PM 49.5913 -8.8847 251° West 464 534 32,500 3,103 Level FlightAware UK
Sun 02:08:17 PM 49.5830 -8.9160 251° West 474 545 34,000  Climbing FlightAware ADS-B
Sun 02:08:36 PM 49.5699 -8.9803 251° West 466 536 32,500  Descending FlightAware UK
Sun 02:08:57 PM 49.5540 -9.0460 251° West 475 547 34,000 1,184 Climbing FlightAware ADS-B
Sun 02:09:52 PM 49.5140 -9.2190 250° West 475 547 34,000  Level FlightAware ADS-B
Sun 02:10:32 PM 49.4850 -9.3440 250° West 477 549 34,000  Level FlightAware ADS-B
Sun 02:11:07 PM 49.4580 -9.4620 251° West 477 549 34,000  Level FlightAware ADS-B
Sun 02:11:52 PM 49.4250 -9.6020 250° West 477 549 34,000 133 Level FlightAware ADS-B
Sun 02:12:37 PM 49.3910 -9.7480 250° West 476 548 34,200 133 Climbing FlightAware ADS-B
Sun 02:13:22 PM 49.3620 -9.8720 250° West 476 548 34,200  Level FlightAware ADS-B
Sun 02:14:02 PM 49.3360 -9.9800 250° West 476 548 34,200  Level FlightAware ADS-B
Sun 02:14:42 PM 49.3110 -10.0880 250° West 476 548 34,200  Level FlightAware ADS-B
Sun 02:15:22 PM 49.2850 -10.1960 250° West 476 548 34,200  Level FlightAware ADS-B
Sun 02:16:02 PM 49.2590 -10.3040 250° West 476 548 34,200  Level FlightAware ADS-B
Sun 02:16:52 PM 49.2270 -10.4380 250° West 476 548 34,200  Level FlightAware ADS-B
Sun 02:17:32 PM 49.2020 -10.5460 251° West 476 548 34,200  Level FlightAware ADS-B
Sun 02:18:12 PM 49.1760 -10.6540 250° West 476 548 34,200  Level FlightAware ADS-B
Sun 02:18:52 PM 49.1500 -10.7610 250° West 476 548 34,200  Level FlightAware ADS-B
Sun 02:19:42 PM 49.1180 -10.8960 250° West 476 548 34,200  Level FlightAware ADS-B
Sun 02:20:22 PM 49.0930 -11.0030 250° West 476 548 34,200  Level FlightAware ADS-B
Sun 02:21:02 PM 49.0670 -11.1110 250° West 476 548 34,200  Level FlightAware ADS-B
Sun 02:21:42 PM 49.0410 -11.2180 250° West 476 548 34,200  Level FlightAware ADS-B
Sun 02:22:22 PM 49.0160 -11.3250 250° West 476 548 34,200 37 Level FlightAware ADS-B
Sun 02:25:00 PM 49.0885 -11.7796 284° West  Level Estimated
Sun 02:26:00 PM 49.1156 -11.9527 284° West  Level Estimated
Sun 02:27:00 PM 49.1424 -12.1258 283° West  Level Estimated
Sun 02:28:00 PM 49.1690 -12.2992 283° West  Level Estimated
Sun 02:29:00 PM 49.1953 -12.4728 283° West  Level Estimated
Sun 02:30:00 PM 49.2213 -12.6465 283° West  Level Estimated
Sun 02:31:00 PM 49.2471 -12.8204 283° West  Level Estimated
Sun 02:32:00 PM 49.2726 -12.9945 283° West  Level Estimated
Sun 02:33:00 PM 49.2979 -13.1688 283° West  Level Estimated
Sun 02:34:00 PM 49.3229 -13.3433 282° West  Level Estimated
Sun 02:35:00 PM 49.3476 -13.5179 282° West  Level Estimated
Sun 02:36:00 PM 49.3721 -13.6927 282° West  Level Estimated
Sun 02:37:00 PM 49.3963 -13.8677 282° West  Level Estimated
Sun 02:38:00 PM 49.4202 -14.0429 282° West  Level Estimated
Sun 02:39:00 PM 49.4439 -14.2182 282° West  Level Estimated
Sun 02:40:00 PM 49.4673 -14.3937 282° West  Level Estimated
Sun 02:41:00 PM 49.4904 -14.5694 282° West  Level Estimated
Sun 02:42:00 PM 49.5133 -14.7452 281° West  Level Estimated
Sun 02:43:00 PM 49.5359 -14.9212 281° West  Level Estimated
Sun 02:44:00 PM 49.5583 -15.0974 281° West  Level Estimated
Sun 02:45:00 PM 49.5803 -15.2737 281° West  Level Estimated
Sun 02:46:00 PM 49.6021 -15.4501 281° West  Level Estimated
Sun 02:47:00 PM 49.6237 -15.6268 281° West  Level Estimated
Sun 02:48:00 PM 49.6449 -15.8036 281° West  Level Estimated
Sun 02:49:00 PM 49.6659 -15.9805 280° West  Level Estimated
Sun 02:50:00 PM 49.6867 -16.1576 280° West  Level Estimated
Sun 02:51:00 PM 49.7071 -16.3348 280° West  Level Estimated
Sun 02:52:00 PM 49.7273 -16.5122 280° West  Level Estimated
Sun 02:53:00 PM 49.7472 -16.6898 280° West  Level Estimated
Sun 02:54:00 PM 49.7669 -16.8674 280° West  Level Estimated
Sun 02:55:00 PM 49.7863 -17.0453 280° West  Level Estimated
Sun 02:56:00 PM 49.8054 -17.2232 280° West  Level Estimated
Sun 02:57:00 PM 49.8242 -17.4013 279° West  Level Estimated
Sun 02:58:00 PM 49.8427 -17.5796 279° West  Level Estimated
Sun 02:59:00 PM 49.8610 -17.7579 279° West  Level Estimated
Sun 03:00:00 PM 49.8790 -17.9365 279° West  Level Estimated
Sun 03:01:00 PM 49.8968 -18.1151 279° West  Level Estimated
Sun 03:02:00 PM 49.9142 -18.2939 279° West  Level Estimated
Sun 03:03:00 PM 49.9314 -18.4728 279° West  Level Estimated
Sun 03:04:00 PM 49.9483 -18.6518 278° West  Level Estimated
Sun 03:05:00 PM 49.9649 -18.8309 278° West  Level Estimated
Sun 03:06:00 PM 49.9813 -19.0102 278° West  Level Estimated
Sun 03:07:00 PM 49.9974 -19.1896 278° West  Level Estimated
Sun 03:08:00 PM 50.0132 -19.3692 278° West  Level Estimated
Sun 03:09:00 PM 50.0287 -19.5488 278° West  Level Estimated
Sun 03:10:00 PM 50.0440 -19.7285 278° West  Level Estimated
Sun 03:11:00 PM 50.0589 -19.9084 277° West  Level Estimated
Sun 03:11:00 PM 47.0000 -20.0000 250° West 472 543 36,000  Level ETMS Enhanced Traffic Management System
Sun 03:12:00 PM 50.0736 -20.0884 277° West  Level Estimated
Sun 03:13:00 PM 50.0880 -20.2684 277° West  Level Estimated
Sun 03:14:00 PM 50.1022 -20.4486 277° West  Level Estimated
Sun 03:15:00 PM 50.1160 -20.6289 277° West  Level Estimated
Sun 03:16:00 PM 50.1296 -20.8093 277° West  Level Estimated
Sun 03:17:00 PM 46.5931 -21.6210 249° West 472 543 36,000  Level FlightAware Transoceanic
Sun 03:18:00 PM 46.5465 -21.7996 249° West 472 543 36,000  Level FlightAware Transoceanic
Sun 03:19:00 PM 46.4996 -21.9779 249° West 472 543 36,000  Level FlightAware Transoceanic
Sun 03:20:00 PM 46.4524 -22.1558 249° West 472 543 36,000  Level FlightAware Transoceanic
Sun 03:21:00 PM 46.4050 -22.3335 249° West 472 543 36,000  Level FlightAware Transoceanic
Sun 03:22:00 PM 46.3573 -22.5109 249° West 472 543 36,000  Level FlightAware Transoceanic
Sun 03:23:00 PM 46.3092 -22.6879 249° West 472 543 36,000  Level FlightAware Transoceanic
Sun 03:24:00 PM 46.2610 -22.8646 248° West 472 543 36,000  Level FlightAware Transoceanic
Sun 03:25:00 PM 46.2124 -23.0411 248° West 472 543 36,000  Level FlightAware Transoceanic
Sun 03:26:00 PM 46.1636 -23.2172 248° West 472 543 36,000  Level FlightAware Transoceanic
Sun 03:27:00 PM 46.1146 -23.3930 248° West 472 543 36,000  Level FlightAware Transoceanic
Sun 03:28:00 PM 46.0652 -23.5684 248° West 472 543 36,000  Level FlightAware Transoceanic
Sun 03:29:00 PM 46.0156 -23.7436 248° West 472 543 36,000  Level FlightAware Transoceanic
Sun 03:30:00 PM 45.9657 -23.9185 248° West 472 543 36,000  Level FlightAware Transoceanic
Sun 03:31:00 PM 45.9156 -24.0930 247° West 472 543 36,000  Level FlightAware Transoceanic
Sun 03:32:00 PM 45.8651 -24.2672 247° West 472 543 36,000  Level FlightAware Transoceanic
Sun 03:33:00 PM 45.8145 -24.4411 247° West 472 543 36,000  Level FlightAware Transoceanic
Sun 03:34:00 PM 45.7635 -24.6147 247° West 472 543 36,000  Level FlightAware Transoceanic
Sun 03:35:00 PM 45.7123 -24.7880 247° West 472 543 36,000  Level FlightAware Transoceanic
Sun 03:36:00 PM 45.6609 -24.9609 247° West 472 543 36,000  Level FlightAware Transoceanic
Sun 03:37:00 PM 45.6091 -25.1336 247° West 472 543 36,000  Level FlightAware Transoceanic
Sun 03:38:00 PM 45.5571 -25.3059 247° West 472 543 36,000  Level FlightAware Transoceanic
Sun 03:39:00 PM 45.5049 -25.4779 246° West 472 543 36,000  Level FlightAware Transoceanic
Sun 03:40:00 PM 45.4524 -25.6496 246° West 472 543 36,000  Level FlightAware Transoceanic
Sun 03:41:00 PM 45.3996 -25.8209 246° West 472 543 36,000  Level FlightAware Transoceanic
Sun 03:42:00 PM 45.3466 -25.9919 246° West 472 543 36,000  Level FlightAware Transoceanic
Sun 03:43:00 PM 45.2933 -26.1627 246° West 472 543 36,000  Level FlightAware Transoceanic
Sun 03:44:00 PM 45.2398 -26.3331 246° West 472 543 36,000  Level FlightAware Transoceanic
Sun 03:45:00 PM 45.1860 -26.5031 246° West 472 543 36,000  Level FlightAware Transoceanic
Sun 03:46:00 PM 45.1320 -26.6729 246° West 472 543 36,000  Level FlightAware Transoceanic
Sun 03:47:00 PM 45.0777 -26.8423 246° West 472 543 36,000  Level FlightAware Transoceanic
Sun 03:48:00 PM 45.0232 -27.0114 245° Southwest 472 543 36,000  Level FlightAware Transoceanic
Sun 03:49:00 PM 44.9684 -27.1802 245° Southwest 472 543 36,000  Level FlightAware Transoceanic
Sun 03:50:00 PM 44.9134 -27.3487 245° Southwest 472 543 36,000  Level FlightAware Transoceanic
Sun 03:51:00 PM 44.8581 -27.5168 245° Southwest 472 543 36,000  Level FlightAware Transoceanic
Sun 03:52:00 PM 44.8026 -27.6846 245° Southwest 472 543 36,000  Level FlightAware Transoceanic
Sun 03:53:00 PM 44.7468 -27.8521 245° Southwest 472 543 36,000  Level FlightAware Transoceanic
Sun 03:54:00 PM 44.6908 -28.0193 245° Southwest 472 543 36,000  Level FlightAware Transoceanic
Sun 03:55:00 PM 44.6346 -28.1861 245° Southwest 472 543 36,000  Level FlightAware Transoceanic
Sun 03:56:00 PM 44.5781 -28.3526 244° Southwest 472 543 36,000  Level FlightAware Transoceanic
Sun 03:57:00 PM 44.5213 -28.5188 244° Southwest 472 543 36,000  Level FlightAware Transoceanic
Sun 03:58:00 PM 44.4644 -28.6847 244° Southwest 472 543 36,000  Level FlightAware Transoceanic
Sun 03:59:00 PM 44.4072 -28.8503 244° Southwest 472 543 36,000  Level FlightAware Transoceanic
Sun 04:00:00 PM 44.3497 -29.0155 244° Southwest 472 543 36,000  Level FlightAware Transoceanic
Sun 04:01:00 PM 44.2920 -29.1804 244° Southwest 472 543 36,000  Level FlightAware Transoceanic
Sun 04:02:00 PM 44.2341 -29.3449 244° Southwest 472 543 36,000  Level FlightAware Transoceanic
Sun 04:03:00 PM 44.1759 -29.5092 244° Southwest 472 543 36,000  Level FlightAware Transoceanic
Sun 04:04:00 PM 44.1175 -29.6731 244° Southwest 472 543 36,000  Level FlightAware Transoceanic
Sun 04:05:00 PM 44.0589 -29.8367 243° Southwest 472 543 36,000  Level FlightAware Transoceanic
Sun 04:06:00 PM 44.0785 -29.9965 280° West  Level Estimated
Sun 04:07:00 PM 44.0980 -30.1563 280° West  Level Estimated
Sun 04:08:00 PM 44.1172 -30.3163 280° West  Level Estimated
Sun 04:09:00 PM 44.1363 -30.4763 279° West  Level Estimated
Sun 04:09:29 PM 44.0000 -30.0000 258° West 495 570 36,000  Level ETMS Enhanced Traffic Management System
Sun 04:10:00 PM 44.1550 -30.6365 279° West  Level Estimated
Sun 04:11:00 PM 44.1736 -30.7968 279° West  Level Estimated
Sun 04:12:00 PM 44.1920 -30.9571 279° West  Level Estimated
Sun 04:13:00 PM 44.2101 -31.1176 279° West  Level Estimated
Sun 04:14:00 PM 44.2280 -31.2782 279° West  Level Estimated
Sun 04:15:00 PM 43.7332 -31.6794 257° West 495 570 36,000  Level FlightAware Transoceanic
Sun 04:16:00 PM 43.7021 -31.8651 257° West 495 570 36,000  Level FlightAware Transoceanic
Sun 04:17:00 PM 43.6707 -32.0506 257° West 495 570 36,000  Level FlightAware Transoceanic
Sun 04:18:00 PM 43.6389 -32.2358 257° West 495 570 36,000  Level FlightAware Transoceanic
Sun 04:19:00 PM 43.6068 -32.4209 256° West 495 570 36,000  Level FlightAware Transoceanic
Sun 04:20:00 PM 43.5745 -32.6058 256° West 495 570 36,000  Level FlightAware Transoceanic
Sun 04:21:00 PM 43.5419 -32.7905 256° West 495 570 36,000  Level FlightAware Transoceanic
Sun 04:22:00 PM 43.5089 -32.9749 256° West 495 570 36,000  Level FlightAware Transoceanic
Sun 04:23:00 PM 43.4757 -33.1592 256° West 495 570 36,000  Level FlightAware Transoceanic
Sun 04:24:00 PM 43.4421 -33.3433 256° West 495 570 36,000  Level FlightAware Transoceanic
Sun 04:25:00 PM 43.4083 -33.5272 256° West 495 570 36,000  Level FlightAware Transoceanic
Sun 04:26:00 PM 43.3742 -33.7108 256° West 495 570 36,000  Level FlightAware Transoceanic
Sun 04:27:00 PM 43.3398 -33.8943 255° West 495 570 36,000  Level FlightAware Transoceanic
Sun 04:28:00 PM 43.3050 -34.0775 255° West 495 570 36,000  Level FlightAware Transoceanic
Sun 04:29:00 PM 43.2701 -34.2606 255° West 495 570 36,000  Level FlightAware Transoceanic
Sun 04:30:00 PM 43.2348 -34.4434 255° West 495 570 36,000  Level FlightAware Transoceanic
Sun 04:31:00 PM 43.1992 -34.6260 255° West 495 570 36,000  Level FlightAware Transoceanic
Sun 04:32:00 PM 43.1633 -34.8084 255° West 495 570 36,000  Level FlightAware Transoceanic
Sun 04:33:00 PM 43.1271 -34.9906 255° West 495 570 36,000  Level FlightAware Transoceanic
Sun 04:34:00 PM 43.0907 -35.1726 255° West 495 570 36,000  Level FlightAware Transoceanic
Sun 04:35:00 PM 43.0539 -35.3543 254° West 495 570 36,000  Level FlightAware Transoceanic
Sun 04:36:00 PM 43.0169 -35.5358 254° West 495 570 36,000  Level FlightAware Transoceanic
Sun 04:37:00 PM 42.9796 -35.7171 254° West 495 570 36,000  Level FlightAware Transoceanic
Sun 04:38:00 PM 42.9420 -35.8982 254° West 495 570 36,000  Level FlightAware Transoceanic
Sun 04:39:00 PM 42.9041 -36.0791 254° West 495 570 36,000  Level FlightAware Transoceanic
Sun 04:40:00 PM 42.8659 -36.2598 254° West 495 570 36,000  Level FlightAware Transoceanic
Sun 04:41:00 PM 42.8275 -36.4402 254° West 495 570 36,000  Level FlightAware Transoceanic
Sun 04:42:00 PM 42.7887 -36.6204 254° West 495 570 36,000  Level FlightAware Transoceanic
Sun 04:43:00 PM 42.7497 -36.8003 253° West 495 570 36,000  Level FlightAware Transoceanic
Sun 04:44:00 PM 42.7104 -36.9801 253° West 495 570 36,000  Level FlightAware Transoceanic
Sun 04:45:00 PM 42.6708 -37.1596 253° West 495 570 36,000  Level FlightAware Transoceanic
Sun 04:46:00 PM 42.6310 -37.3389 253° West 495 570 36,000  Level FlightAware Transoceanic
Sun 04:47:00 PM 42.5909 -37.5179 253° West 495 570 36,000  Level FlightAware Transoceanic
Sun 04:48:00 PM 42.5504 -37.6968 253° West 495 570 36,000  Level FlightAware Transoceanic
Sun 04:49:00 PM 42.5097 -37.8754 253° West 495 570 36,000  Level FlightAware Transoceanic
Sun 04:50:00 PM 42.4688 -38.0537 253° West 495 570 36,000  Level FlightAware Transoceanic
Sun 04:51:00 PM 42.4275 -38.2318 253° West 495 570 36,000  Level FlightAware Transoceanic
Sun 04:52:00 PM 42.3860 -38.4097 252° West 495 570 36,000  Level FlightAware Transoceanic
Sun 04:53:00 PM 42.3442 -38.5874 252° West 495 570 36,000  Level FlightAware Transoceanic
Sun 04:54:00 PM 42.3021 -38.7648 252° West 495 570 36,000  Level FlightAware Transoceanic
Sun 04:55:00 PM 42.2598 -38.9420 252° West 495 570 36,000  Level FlightAware Transoceanic
Sun 04:56:00 PM 42.2172 -39.1189 252° West 495 570 36,000  Level FlightAware Transoceanic
Sun 04:57:00 PM 42.1743 -39.2956 252° West 495 570 36,000  Level FlightAware Transoceanic
Sun 04:58:00 PM 42.1311 -39.4721 252° West 495 570 36,000  Level FlightAware Transoceanic
Sun 04:59:00 PM 42.0877 -39.6483 252° West 495 570 36,000  Level FlightAware Transoceanic
Sun 05:00:00 PM 42.0440 -39.8243 251° West 495 570 36,000  Level FlightAware Transoceanic
Sun 05:01:00 PM 42.0614 -39.9794 279° West  Level Estimated
Sun 05:02:00 PM 42.0785 -40.1345 279° West  Level Estimated
Sun 05:03:00 PM 42.0955 -40.2898 278° West  Level Estimated
Sun 05:04:00 PM 42.1122 -40.4451 278° West  Level Estimated
Sun 05:05:00 PM 42.1288 -40.6005 278° West  Level Estimated
Sun 05:05:32 PM 42.0000 -40.0000 273° West 487 560 36,000  Level New York Oceanic (ODAPS)
Sun 05:06:00 PM 42.1451 -40.7560 278° West  Level Estimated
Sun 05:07:00 PM 42.1612 -40.9116 278° West  Level Estimated
Sun 05:08:00 PM 42.1771 -41.0672 278° West  Level Estimated
Sun 05:09:00 PM 42.1928 -41.2229 278° West  Level Estimated
Sun 05:10:00 PM 42.2083 -41.3788 278° West  Level Estimated
Sun 05:11:00 PM 42.0695 -41.9978 272° West 487 560 36,000  Level FlightAware Transoceanic
Sun 05:12:00 PM 42.0741 -42.1796 272° West 487 560 36,000  Level FlightAware Transoceanic
Sun 05:13:00 PM 42.0784 -42.3615 272° West 487 560 36,000  Level FlightAware Transoceanic
Sun 05:14:00 PM 42.0824 -42.5433 272° West 487 560 36,000  Level FlightAware Transoceanic
Sun 05:15:00 PM 42.0862 -42.7252 272° West 487 560 36,000  Level FlightAware Transoceanic
Sun 05:16:00 PM 42.0896 -42.9071 271° West 487 560 36,000  Level FlightAware Transoceanic
Sun 05:17:00 PM 42.0928 -43.0891 271° West 487 560 36,000  Level FlightAware Transoceanic
Sun 05:18:00 PM 42.0957 -43.2710 271° West 487 560 36,000  Level FlightAware Transoceanic
Sun 05:19:00 PM 42.0983 -43.4529 271° West 487 560 36,000  Level FlightAware Transoceanic
Sun 05:20:00 PM 42.1006 -43.6349 271° West 487 560 36,000  Level FlightAware Transoceanic
Sun 05:21:00 PM 42.1026 -43.8169 271° West 487 560 36,000  Level FlightAware Transoceanic
Sun 05:22:00 PM 42.1043 -43.9989 271° West 487 560 36,000  Level FlightAware Transoceanic
Sun 05:23:00 PM 42.1057 -44.1809 271° West 487 560 36,000  Level FlightAware Transoceanic
Sun 05:24:00 PM 42.1069 -44.3629 270° West 487 560 36,000  Level FlightAware Transoceanic
Sun 05:25:00 PM 42.1077 -44.5449 270° West 487 560 36,000  Level FlightAware Transoceanic
Sun 05:26:00 PM 42.1083 -44.7270 270° West 487 560 36,000  Level FlightAware Transoceanic
Sun 05:27:00 PM 42.1086 -44.9090 270° West 487 560 36,000  Level FlightAware Transoceanic
Sun 05:28:00 PM 42.1086 -45.0910 270° West 487 560 36,000  Level FlightAware Transoceanic
Sun 05:29:00 PM 42.1083 -45.2730 270° West 487 560 36,000  Level FlightAware Transoceanic
Sun 05:30:00 PM 42.1077 -45.4551 270° West 487 560 36,000  Level FlightAware Transoceanic
Sun 05:31:00 PM 42.1069 -45.6371 270° West 487 560 36,000  Level FlightAware Transoceanic
Sun 05:32:00 PM 42.1057 -45.8191 269° West 487 560 36,000  Level FlightAware Transoceanic
Sun 05:33:00 PM 42.1043 -46.0011 269° West 487 560 36,000  Level FlightAware Transoceanic
Sun 05:34:00 PM 42.1026 -46.1831 269° West 487 560 36,000  Level FlightAware Transoceanic
Sun 05:35:00 PM 42.1006 -46.3651 269° West 487 560 36,000  Level FlightAware Transoceanic
Sun 05:36:00 PM 42.0983 -46.5471 269° West 487 560 36,000  Level FlightAware Transoceanic
Sun 05:37:00 PM 42.0957 -46.7290 269° West 487 560 36,000  Level FlightAware Transoceanic
Sun 05:38:00 PM 42.0928 -46.9109 269° West 487 560 36,000  Level FlightAware Transoceanic
Sun 05:39:00 PM 42.0896 -47.0929 269° West 487 560 36,000  Level FlightAware Transoceanic
Sun 05:40:00 PM 42.0862 -47.2748 268° West 487 560 36,000  Level FlightAware Transoceanic
Sun 05:41:00 PM 42.0824 -47.4567 268° West 487 560 36,000  Level FlightAware Transoceanic
Sun 05:42:00 PM 42.0784 -47.6385 268° West 487 560 36,000  Level FlightAware Transoceanic
Sun 05:43:00 PM 42.0741 -47.8204 268° West 487 560 36,000  Level FlightAware Transoceanic
Sun 05:44:00 PM 42.0695 -48.0022 268° West 487 560 36,000  Level FlightAware Transoceanic
Sun 05:45:00 PM 42.0646 -48.1840 268° West 487 560 36,000  Level FlightAware Transoceanic
Sun 05:46:00 PM 42.0594 -48.3657 268° West 487 560 36,000  Level FlightAware Transoceanic
Sun 05:47:00 PM 42.0540 -48.5475 268° West 487 560 36,000  Level FlightAware Transoceanic
Sun 05:48:00 PM 42.0482 -48.7292 268° West 487 560 36,000  Level FlightAware Transoceanic
Sun 05:49:00 PM 42.0422 -48.9108 267° West 487 560 36,000  Level FlightAware Transoceanic
Sun 05:50:00 PM 42.0359 -49.0924 267° West 487 560 36,000  Level FlightAware Transoceanic
Sun 05:51:00 PM 42.0293 -49.2740 267° West 487 560 36,000  Level FlightAware Transoceanic
Sun 05:52:00 PM 42.0224 -49.4556 267° West 487 560 36,000  Level FlightAware Transoceanic
Sun 05:53:00 PM 42.0152 -49.6371 267° West 487 560 36,000  Level FlightAware Transoceanic
Sun 05:54:00 PM 42.0078 -49.8186 267° West 487 560 36,000  Level FlightAware Transoceanic
Sun 05:55:00 PM 42.0000 -50.0000 258° West 487 560 36,000  Level FlightAware Transoceanic
Sun 05:56:00 PM 41.9766 -50.1535 258° West 487 560 36,000  Level FlightAware Transoceanic
Sun 05:57:00 PM 41.9531 -50.3069 258° West 487 560 36,000  Level FlightAware Transoceanic
Sun 05:58:00 PM 41.9293 -50.4601 258° West 487 560 36,000  Level FlightAware Transoceanic
Sun 05:59:00 PM 41.9053 -50.6133 258° West 487 560 36,000  Level FlightAware Transoceanic
Sun 05:59:51 PM 42.0000 -50.0000 258° West 420 483 36,000  Level New York Oceanic (ODAPS)
Sun 06:00:00 PM 41.8812 -50.7663 258° West 487 560 36,000  Level FlightAware Transoceanic
Sun 06:01:00 PM 41.8568 -50.9192 258° West 487 560 36,000  Level FlightAware Transoceanic
Sun 06:02:00 PM 41.8322 -51.0720 258° West 487 560 36,000  Level FlightAware Transoceanic
Sun 06:03:00 PM 41.8074 -51.2247 258° West 487 560 36,000  Level FlightAware Transoceanic
Sun 06:04:00 PM 41.7824 -51.3773 258° West 487 560 36,000  Level FlightAware Transoceanic
Sun 06:05:00 PM 41.7573 -51.5297 257° West 487 560 36,000  Level FlightAware Transoceanic
Sun 06:06:00 PM 41.7824 -51.3773 258° West 420 483 36,000  Level FlightAware Transoceanic
Sun 06:07:00 PM 41.7573 -51.5297 257° West 420 483 36,000  Level FlightAware Transoceanic
Sun 06:08:00 PM 41.7319 -51.6820 257° West 420 483 36,000  Level FlightAware Transoceanic
Sun 06:09:00 PM 41.7063 -51.8343 257° West 420 483 36,000  Level FlightAware Transoceanic
Sun 06:10:00 PM 41.6805 -51.9863 257° West 420 483 36,000  Level FlightAware Transoceanic
Sun 06:11:00 PM 41.6545 -52.1383 257° West 420 483 36,000  Level FlightAware Transoceanic
Sun 06:12:00 PM 41.6283 -52.2901 257° West 420 483 36,000  Level FlightAware Transoceanic
Sun 06:13:00 PM 41.6019 -52.4418 257° West 420 483 36,000  Level FlightAware Transoceanic
Sun 06:14:00 PM 41.5753 -52.5934 257° West 420 483 36,000  Level FlightAware Transoceanic
Sun 06:15:00 PM 41.5485 -52.7449 257° West 420 483 36,000  Level FlightAware Transoceanic
Sun 06:16:00 PM 41.5215 -52.8962 257° West 420 483 36,000  Level FlightAware Transoceanic
Sun 06:17:00 PM 41.4944 -53.0475 256° West 420 483 36,000  Level FlightAware Transoceanic
Sun 06:18:00 PM 41.4670 -53.1985 256° West 420 483 36,000  Level FlightAware Transoceanic
Sun 06:19:00 PM 41.4394 -53.3495 256° West 420 483 36,000  Level FlightAware Transoceanic
Sun 06:20:00 PM 41.4116 -53.5003 256° West 420 483 36,000  Level FlightAware Transoceanic
Sun 06:21:00 PM 41.3837 -53.6510 256° West 420 483 36,000  Level FlightAware Transoceanic
Sun 06:22:00 PM 41.3555 -53.8016 256° West 420 483 36,000  Level FlightAware Transoceanic
Sun 06:23:00 PM 41.3271 -53.9520 256° West 420 483 36,000  Level FlightAware Transoceanic
Sun 06:24:00 PM 41.2986 -54.1023 256° West 420 483 36,000  Level FlightAware Transoceanic
Sun 06:25:00 PM 41.2698 -54.2525 256° West 420 483 36,000  Level FlightAware Transoceanic
Sun 06:26:00 PM 41.2408 -54.4025 256° West 420 483 36,000  Level FlightAware Transoceanic
Sun 06:27:00 PM 41.2117 -54.5524 255° West 420 483 36,000  Level FlightAware Transoceanic
Sun 06:28:00 PM 41.1824 -54.7022 255° West 420 483 36,000  Level FlightAware Transoceanic
Sun 06:29:00 PM 41.1528 -54.8519 255° West 420 483 36,000  Level FlightAware Transoceanic
Sun 06:30:00 PM 41.1231 -55.0014 255° West 420 483 36,000  Level FlightAware Transoceanic
Sun 06:31:00 PM 41.0932 -55.1507 255° West 420 483 36,000  Level FlightAware Transoceanic
Sun 06:32:00 PM 41.0631 -55.3000 255° West 420 483 36,000  Level FlightAware Transoceanic
Sun 06:33:00 PM 41.0328 -55.4491 255° West 420 483 36,000  Level FlightAware Transoceanic
Sun 06:34:00 PM 41.0023 -55.5980 255° West 420 483 36,000  Level FlightAware Transoceanic
Sun 06:35:00 PM 40.9716 -55.7468 255° West 420 483 36,000  Level FlightAware Transoceanic
Sun 06:36:00 PM 40.9407 -55.8955 255° West 420 483 36,000  Level FlightAware Transoceanic
Sun 06:37:00 PM 40.9096 -56.0440 254° West 420 483 36,000  Level FlightAware Transoceanic
Sun 06:38:00 PM 40.8783 -56.1925 254° West 420 483 36,000  Level FlightAware Transoceanic
Sun 06:39:00 PM 40.8469 -56.3407 254° West 420 483 36,000  Level FlightAware Transoceanic
Sun 06:40:00 PM 40.8153 -56.4888 254° West 420 483 36,000  Level FlightAware Transoceanic
Sun 06:41:00 PM 40.7834 -56.6368 254° West 420 483 36,000  Level FlightAware Transoceanic
Sun 06:42:00 PM 40.7514 -56.7846 254° West 420 483 36,000  Level FlightAware Transoceanic
Sun 06:43:00 PM 40.7192 -56.9323 254° West 420 483 36,000  Level FlightAware Transoceanic
Sun 06:44:00 PM 40.6868 -57.0799 254° West 420 483 36,000  Level FlightAware Transoceanic
Sun 06:45:00 PM 40.6542 -57.2273 254° West 420 483 36,000  Level FlightAware Transoceanic
Sun 06:46:00 PM 40.6214 -57.3745 254° West 420 483 36,000  Level FlightAware Transoceanic
Sun 06:47:00 PM 40.5885 -57.5217 254° West 420 483 36,000  Level FlightAware Transoceanic
Sun 06:48:00 PM 40.5553 -57.6686 253° West 420 483 36,000  Level FlightAware Transoceanic
Sun 06:49:00 PM 40.5220 -57.8155 253° West 420 483 36,000  Level FlightAware Transoceanic
Sun 06:50:00 PM 40.4885 -57.9621 253° West 420 483 36,000  Level FlightAware Transoceanic
Sun 06:51:00 PM 40.4548 -58.1087 253° West 420 483 36,000  Level FlightAware Transoceanic
Sun 06:52:00 PM 40.4209 -58.2551 253° West 420 483 36,000  Level FlightAware Transoceanic
Sun 06:53:00 PM 40.3868 -58.4013 253° West 420 483 36,000  Level FlightAware Transoceanic
Sun 06:54:00 PM 40.3526 -58.5474 253° West 420 483 36,000  Level FlightAware Transoceanic
Sun 06:55:00 PM 40.3181 -58.6933 253° West 420 483 36,000  Level FlightAware Transoceanic
Sun 06:56:00 PM 40.2835 -58.8391 253° West 420 483 36,000  Level FlightAware Transoceanic
Sun 06:57:00 PM 40.2487 -58.9847 253° West 420 483 36,000  Level FlightAware Transoceanic
Sun 06:58:00 PM 40.2137 -59.1302 252° West 420 483 36,000  Level FlightAware Transoceanic
Sun 06:59:00 PM 40.1786 -59.2756 252° West 420 483 36,000  Level FlightAware Transoceanic
Sun 07:00:00 PM 40.1432 -59.4208 252° West 420 483 36,000  Level FlightAware Transoceanic
Sun 07:01:00 PM 40.1077 -59.5658 252° West 420 483 36,000  Level FlightAware Transoceanic
Sun 07:02:00 PM 40.0720 -59.7107 252° West 420 483 36,000  Level FlightAware Transoceanic
Sun 07:03:00 PM 40.0361 -59.8554 252° West 420 483 36,000  Level FlightAware Transoceanic
Sun 07:04:00 PM 40.0000 -60.0000 263° West 420 483 36,000  Level FlightAware Transoceanic
Sun 07:05:00 PM 39.9870 -60.1362 263° West 420 483 36,000  Level FlightAware Transoceanic
Sun 07:06:00 PM 39.9739 -60.2723 263° West 420 483 36,000  Level FlightAware Transoceanic
Sun 07:07:00 PM 39.9605 -60.4084 263° West 420 483 36,000 1,446 Level FlightAware Transoceanic
Sun 07:07:23 PM 40.0000 -60.0000 263° West 379 436 38,000  Climbing New York Oceanic (ODAPS)
Sun 07:08:00 PM 39.9471 -60.5444 263° West 420 483 36,000 -1,237 Descending FlightAware Transoceanic
Sun 07:09:00 PM 39.9335 -60.6804 263° West 420 483 36,000  Level FlightAware Transoceanic
Sun 07:10:00 PM 39.9197 -60.8163 262° West 420 483 36,000  Level FlightAware Transoceanic
Sun 07:11:00 PM 39.9057 -60.9522 262° West 420 483 36,000  Level FlightAware Transoceanic
Sun 07:12:00 PM 39.8916 -61.0880 262° West 420 483 36,000 1,000 Level FlightAware Transoceanic
Sun 07:13:00 PM 39.8774 -61.2237 262° West 379 436 38,000 1,000 Climbing FlightAware Transoceanic
Sun 07:14:00 PM 39.8629 -61.3594 262° West 379 436 38,000  Level FlightAware Transoceanic
Sun 07:15:00 PM 39.8484 -61.4950 262° West 379 436 38,000  Level FlightAware Transoceanic
Sun 07:16:00 PM 39.8336 -61.6306 262° West 379 436 38,000  Level FlightAware Transoceanic
Sun 07:17:00 PM 39.8187 -61.7661 262° West 379 436 38,000  Level FlightAware Transoceanic
Sun 07:18:00 PM 39.8037 -61.9016 262° West 379 436 38,000  Level FlightAware Transoceanic
Sun 07:19:00 PM 39.7885 -62.0370 262° West 379 436 38,000  Level FlightAware Transoceanic
Sun 07:20:00 PM 39.7731 -62.1723 262° West 379 436 38,000  Level FlightAware Transoceanic
Sun 07:21:00 PM 39.7576 -62.3076 261° West 379 436 38,000  Level FlightAware Transoceanic
Sun 07:22:00 PM 39.7419 -62.4428 261° West 379 436 38,000  Level FlightAware Transoceanic
Sun 07:23:00 PM 39.7261 -62.5780 261° West 379 436 38,000  Level FlightAware Transoceanic
Sun 07:24:00 PM 39.7101 -62.7131 261° West 379 436 38,000  Level FlightAware Transoceanic
Sun 07:25:00 PM 39.6940 -62.8481 261° West 379 436 38,000  Level FlightAware Transoceanic
Sun 07:26:00 PM 39.6776 -62.9831 261° West 379 436 38,000  Level FlightAware Transoceanic
Sun 07:27:00 PM 39.6612 -63.1180 261° West 379 436 38,000  Level FlightAware Transoceanic
Sun 07:28:00 PM 39.6446 -63.2528 261° West 379 436 38,000  Level FlightAware Transoceanic
Sun 07:29:00 PM 39.6278 -63.3876 261° West 379 436 38,000  Level FlightAware Transoceanic
Sun 07:30:00 PM 39.6109 -63.5223 261° West 379 436 38,000  Level FlightAware Transoceanic
Sun 07:31:00 PM 39.5938 -63.6570 261° West 379 436 38,000  Level FlightAware Transoceanic
Sun 07:32:00 PM 39.5765 -63.7915 261° West 379 436 38,000  Level FlightAware Transoceanic
Sun 07:33:00 PM 39.5591 -63.9260 260° West 379 436 38,000  Level FlightAware Transoceanic
Sun 07:34:00 PM 39.5416 -64.0605 260° West 379 436 38,000  Level FlightAware Transoceanic
Sun 07:35:00 PM 39.5239 -64.1948 260° West 379 436 38,000  Level FlightAware Transoceanic
Sun 07:36:00 PM 39.5060 -64.3292 260° West 379 436 38,000  Level FlightAware Transoceanic
Sun 07:37:00 PM 39.4880 -64.4634 260° West 379 436 38,000  Level FlightAware Transoceanic
Sun 07:38:00 PM 39.4698 -64.5976 260° West 379 436 38,000  Level FlightAware Transoceanic
Sun 07:39:00 PM 39.4515 -64.7317 260° West 379 436 38,000  Level FlightAware Transoceanic
Sun 07:40:00 PM 39.4330 -64.8657 260° West 379 436 38,000  Level FlightAware Transoceanic
Sun 07:41:00 PM 39.4144 -64.9996 260° West 379 436 38,000  Level FlightAware Transoceanic
Sun 07:42:00 PM 39.3956 -65.1335 260° West 379 436 38,000  Level FlightAware Transoceanic
Sun 07:43:00 PM 39.3767 -65.2673 260° West 379 436 38,000  Level FlightAware Transoceanic
Sun 07:44:00 PM 39.3576 -65.4010 259° West 379 436 38,000  Level FlightAware Transoceanic
Sun 07:45:00 PM 39.3384 -65.5347 259° West 379 436 38,000  Level FlightAware Transoceanic
Sun 07:46:00 PM 39.3190 -65.6683 259° West 379 436 38,000  Level FlightAware Transoceanic
Sun 07:47:00 PM 39.2994 -65.8018 259° West 379 436 38,000  Level FlightAware Transoceanic
Sun 07:48:00 PM 39.2797 -65.9352 259° West 379 436 38,000  Level FlightAware Transoceanic
Sun 07:49:00 PM 39.2599 -66.0686 259° West 379 436 38,000  Level FlightAware Transoceanic
Sun 07:50:00 PM 39.2399 -66.2019 259° West 379 436 38,000  Level FlightAware Transoceanic
Sun 07:51:00 PM 39.2197 -66.3351 259° West 379 436 38,000  Level FlightAware Transoceanic
Sun 07:52:00 PM 39.1994 -66.4682 259° West 379 436 38,000  Level FlightAware Transoceanic
Sun 07:53:00 PM 39.1790 -66.6013 259° West 379 436 38,000  Level FlightAware Transoceanic
Sun 07:54:00 PM 39.1583 -66.7343 259° West 379 436 38,000  Level FlightAware Transoceanic
Sun 07:55:00 PM 39.1376 -66.8672 259° West 379 436 38,000  Level FlightAware Transoceanic
Sun 07:56:00 PM 39.1167 -67.0000 272° West 379 436 38,000  Level FlightAware Transoceanic
Sun 07:56:04 PM 39.1797 -66.7072 271° West 460 529 38,000  Level New York Center
Sun 07:57:00 PM 39.1199 -67.1328 272° West 379 436 38,000  Level FlightAware Transoceanic
Sun 07:57:05 PM 39.1569 -66.8397 258° West 432 497 38,000  Level New York Center
Sun 07:58:00 PM 39.1230 -67.2656 272° West 379 436 38,000 300 Level FlightAware Transoceanic
Sun 07:58:05 PM 39.1381 -66.9614 259° West 381 438 38,300  Climbing New York Center
Sun 07:59:00 PM 39.1259 -67.3984 272° West 379 436 38,000 1,200 Descending FlightAware Transoceanic
Sun 07:59:05 PM 39.1317 -67.0900 266° West 363 418 39,500  Climbing New York Center
Sun 08:00:00 PM 39.1287 -67.5313 272° West 379 436 38,000 500 Descending FlightAware Transoceanic
Sun 08:00:05 PM 39.1356 -67.2183 272° West 363 418 40,000  Climbing New York Center
Sun 08:01:00 PM 39.1313 -67.6641 271° West 379 436 38,000  Descending FlightAware Transoceanic
Sun 08:01:05 PM 39.1414 -67.3467 273° West 363 418 40,000 1,818 Climbing New York Center
Sun 08:02:06 PM 39.1408 -67.4778 270° West 363 418 40,000  Level New York Center
Sun 08:03:04 PM 39.1461 -67.6033 273° West 368 423 40,000  Level New York Center
Sun 08:04:04 PM 39.1475 -67.7400 271° West 368 423 40,000  Level New York Center
Sun 08:05:05 PM 39.1508 -67.8736 272° West 368 423 40,000  Level New York Center
Sun 08:06:05 PM 39.1539 -68.0019 272° West 368 423 40,000  Level New York Center
Sun 08:07:04 PM 39.1528 -68.1386 269° West 368 423 40,000  Level New York Center
Sun 08:08:05 PM 39.1556 -68.2725 272° West 374 430 40,000  Level New York Center
Sun 08:09:06 PM 39.1561 -68.4089 270° West 381 438 40,000  Level New York Center
Sun 08:10:03 PM 39.1589 -68.5428 272° West 381 438 40,000  Level New York Center
Sun 08:11:04 PM 39.1631 -68.6739 272° West 381 438 40,000  Level New York Center
Sun 08:12:04 PM 39.1633 -68.8131 270° West 381 438 40,000  Level New York Center
Sun 08:13:03 PM 39.1656 -68.9444 271° West 381 438 40,000  Level New York Center
Sun 08:14:03 PM 39.1653 -69.0836 270° West 381 438 40,000  Level New York Center
Sun 08:15:04 PM 39.1650 -69.2228 270° West 387 445 40,000  Level New York Center
Sun 08:16:04 PM 39.1706 -69.3297 274° West 370 426 40,000  Level New York Center
Sun 08:17:05 PM 39.1700 -69.4692 270° West 370 426 40,000  Level New York Center
Sun 08:18:06 PM 39.1672 -69.6083 269° West 370 426 40,000  Level New York Center
Sun 08:19:04 PM 39.1642 -69.7450 268° West 380 437 40,000  Level New York Center
Sun 08:20:05 PM 39.1694 -69.8761 273° West 380 437 40,000  Level New York Center
Sun 08:21:06 PM 39.1683 -70.0153 269° West 386 444 40,000  Level New York Center
Sun 08:22:04 PM 39.1628 -70.1575 267° West 386 444 40,000  Level New York Center
Sun 08:23:05 PM 39.1633 -70.2914 270° West 386 444 40,000  Level New York Center
Sun 08:24:05 PM 39.1617 -70.4278 269° West 381 438 40,000  Level New York Center
Sun 08:25:04 PM 39.1597 -70.5697 269° West 386 444 40,000  Level New York Center
Sun 08:26:05 PM 39.1536 -70.7117 267° West 386 444 40,000  Level New York Center
Sun 08:27:04 PM 39.1536 -70.8508 270° West 386 444 40,000  Level New York Center
Sun 08:28:04 PM 39.1533 -70.9794 270° West 381 438 40,000 -347 Level New York Center
Sun 08:29:05 PM 39.1508 -71.1158 269° West 381 438 39,300 -1,100 Descending New York Center
Sun 08:30:04 PM 39.1503 -71.2525 270° West 386 444 37,800 -2,100 Descending New York Center
Sun 08:31:05 PM 39.1456 -71.3836 267° West 380 437 35,100 -563 Descending New York Center
Sun 08:36:49 PM 39.1836 -72.1996 267° West 413 475 34,000 -397 Descending FlightAware ADS-B
Sun 08:37:38 PM 39.2304 -72.3016 301° West 405 466 32,500 -2,386 Descending FlightAware ADS-B
Sun 08:38:17 PM 39.2674 -72.3829 300° West 410 472 30,500 -2,800 Descending FlightAware ADS-B
Sun 08:38:53 PM 39.3021 -72.4590 301° West 410 472 29,000 -2,507 Descending FlightAware ADS-B
Sun 08:39:24 PM 39.3309 -72.5230 300° West 402 463 27,700 -2,459 Descending FlightAware ADS-B
Sun 08:39:54 PM 39.3585 -72.5843 300° West 396 456 26,500 -2,471 Descending FlightAware ADS-B
Sun 08:40:32 PM 39.3935 -72.6620 300° West 391 450 24,900 -2,692 Descending FlightAware ADS-B
Sun 08:41:12 PM 39.4260 -72.7340 300° West 393 452 23,000 -2,753 Descending FlightAware ADS-B
Sun 08:41:57 PM 39.4640 -72.8200 300° West 390 449 21,000 -2,640 Descending FlightAware ADS-B
Sun 08:42:27 PM 39.4940 -72.8860 301° West 375 432 19,700 -510 Descending FlightAware ADS-B
Sun 08:44:30 PM 39.5830 -73.0960 299° West 375 432 19,700  Level FlightAware ADS-B
Sun 08:45:10 PM 39.6120 -73.1630 299° West 375 432 19,700 -3,453 Level FlightAware ADS-B
Sun 08:47:29 PM 39.7475 -73.4587 301° West 342 394 9,400 -3,915 Descending FlightAware ADS-B
Sun 08:47:54 PM 39.7667 -73.5028 300° West 337 388 9,000 -1,317 Descending FlightAware ADS-B
Sun 08:48:10 PM 39.7791 -73.5308 300° West 335 386 8,500 -2,129 Descending FlightAware ADS-B
Sun 08:48:25 PM 39.7904 -73.5571 299° West 335 386 7,900 -2,182 Descending FlightAware ADS-B
Sun 08:48:43 PM 39.8043 -73.5892 299° West 333 383 7,300 -2,108 Descending FlightAware ADS-B
Sun 08:49:02 PM 39.8191 -73.6230 300° West 332 382 6,600 -1,421 Descending FlightAware ADS-B
Sun 08:49:21 PM 39.8332 -73.6551 300° West 324 373 6,400 -255 Descending FlightAware ADS-B
Sun 08:49:49 PM 39.8522 -73.6990 299° West 309 356 6,400  Level FlightAware ADS-B
Sun 08:50:30 PM 39.8770 -73.7550 300° West 278 320 6,400  Level FlightAware ADS-B
Sun 08:50:41 PM 39.8848 -73.7741 298° West 279 321 6,400  Level FlightAware ADS-B
Sun 08:50:58 PM 39.8958 -73.7996 299° West 278 320 6,400  Level FlightAware ADS-B
Sun 08:51:18 PM 39.9085 -73.8290 299° West 279 321 6,400  Level FlightAware ADS-B
Sun 08:51:34 PM 39.9185 -73.8520 300° West 278 320 6,400 -182 Level FlightAware ADS-B
Sun 08:51:51 PM 39.9295 -73.8774 299° West 278 320 6,300 -818 Descending FlightAware ADS-B
Sun 08:52:40 PM 39.9590 -73.9450 300° West 270 311 5,500 -730 Descending FlightAware ADS-B
Sun 08:53:05 PM 39.9740 -73.9800 299° West 273 314 5,400 -109 Descending FlightAware ADS-B
Sun 08:53:35 PM 39.9930 -74.0240 299° West 273 314 5,400  Level FlightAware ADS-B
Sun 08:53:50 PM 40.0010 -74.0440 298° West 274 315 5,400  Level FlightAware ADS-B
Sun 08:54:06 PM 40.0125 -74.0709 299° West 274 315 5,400  Level FlightAware ADS-B
Sun 08:54:21 PM 40.0220 -74.0929 299° West 272 313 5,400  Level FlightAware ADS-B
Sun 08:54:37 PM 40.0316 -74.1153 299° West 274 315 5,400  Level FlightAware ADS-B
Sun 08:54:53 PM 40.0414 -74.1384 299° West 275 316 5,400  Level FlightAware ADS-B
Sun 08:55:10 PM 40.0519 -74.1627 299° West 272 313 5,400  Level FlightAware ADS-B
Sun 08:55:25 PM 40.0613 -74.1847 299° West 272 313 5,400  Level FlightAware ADS-B
Sun 08:55:42 PM 40.0716 -74.2090 299° West 274 315 5,400  Level FlightAware ADS-B
Sun 08:55:57 PM 40.0811 -74.2310 299° West 274 315 5,400  Level FlightAware ADS-B
Sun 08:56:15 PM 40.0919 -74.2565 299° West 273 314 5,400  Level FlightAware ADS-B
Sun 08:56:30 PM 40.1015 -74.2789 299° West 274 315 5,400  Level FlightAware ADS-B
Sun 08:56:45 PM 40.1106 -74.3005 299° West 273 314 5,400  Level FlightAware ADS-B
Sun 08:57:01 PM 40.1203 -74.3236 299° West 272 313 5,400  Level FlightAware ADS-B
Sun 08:57:20 PM 40.1315 -74.3499 299° West 273 314 5,400  Level FlightAware ADS-B
Sun 08:57:35 PM 40.1408 -74.3718 299° West 275 316 5,400  Level FlightAware ADS-B
Sun 08:57:52 PM 40.1512 -74.3967 299° West 274 315 5,400  Level FlightAware ADS-B
Sun 08:58:07 PM 40.1605 -74.4186 299° West 274 315 5,400  Level FlightAware ADS-B
Sun 08:58:25 PM 40.1720 -74.4444 300° West 273 314 5,400  Level FlightAware ADS-B
Sun 08:58:32 PM 40.1775 -74.4520 313° West 256 295 5,400  Level FlightAware ADS-B
Sun 08:58:37 PM 40.1816 -74.4566 319° Northwest 248 285 5,400  Level FlightAware ADS-B
Sun 08:58:53 PM 40.1964 -74.4707 324° Northwest 231 266 5,400  Level FlightAware ADS-B
Sun 08:59:11 PM 40.2115 -74.4847 325° Northwest 222 255 5,400  Level FlightAware ADS-B
Sun 08:59:29 PM 40.2261 -74.4987 324° Northwest 222 255 5,400  Level FlightAware ADS-B
Sun 08:59:44 PM 40.2383 -74.5103 324° Northwest 210 242 5,400  Level FlightAware ADS-B
Sun 08:59:58 PM 40.2494 -74.5210 324° Northwest 202 232 5,400  Level FlightAware ADS-B
Sun 09:00:04 PM 40.2539 -74.5251 325° Northwest 201 231 5,400  Level FlightAware ADS-B
Sun 09:00:09 PM 40.2580 -74.5280 332° Northwest 199 229 5,400  Level FlightAware ADS-B
Sun 09:00:12 PM 40.2604 -74.5296 333° Northwest 198 228 5,400  Level FlightAware ADS-B
Sun 09:00:17 PM 40.2642 -74.5314 340° North 197 227 5,400  Level FlightAware ADS-B
Sun 09:00:25 PM 40.2713 -74.5347 340° North 198 228 5,400  Level FlightAware ADS-B
Sun 09:00:40 PM 40.2848 -74.5402 343° North 201 231 5,400  Level FlightAware ADS-B
Sun 09:00:56 PM 40.2991 -74.5457 344° North 201 231 5,400  Level FlightAware ADS-B
Sun 09:01:12 PM 40.3135 -74.5512 344° North 200 230 5,400  Level FlightAware ADS-B
Sun 09:01:23 PM 40.3229 -74.5546 345° North 199 229 5,400  Level FlightAware ADS-B
Sun 09:01:28 PM 40.3274 -74.5553 353° North 195 224 5,400 -600 Level FlightAware ADS-B
Sun 09:01:33 PM 40.3322 -74.5548 North 190 219 5,300 -750 Descending FlightAware ADS-B
Sun 09:01:36 PM 40.3347 -74.5540 14° North 189 217 5,300 -600 Level FlightAware ADS-B
Sun 09:01:43 PM 40.3399 -74.5505 27° Northeast 184 212 5,200 -923 Descending FlightAware ADS-B
Sun 09:01:49 PM 40.3437 -74.5455 45° Northeast 182 209 5,100 -600 Descending FlightAware ADS-B
Sun 09:01:53 PM 40.3452 -74.5426 56° Northeast 182 209 5,100 -750 Level FlightAware ADS-B
Sun 09:01:57 PM 40.3468 -74.5388 61° Northeast 181 208 5,000 -1,200 Descending FlightAware ADS-B
Sun 09:02:03 PM 40.3490 -74.5323 66° East 183 211 4,900 -1,200 Descending FlightAware ADS-B
Sun 09:02:12 PM 40.3516 -74.5232 69° East 184 212 4,700 -1,200 Descending FlightAware ADS-B
Sun 09:02:18 PM 40.3533 -74.5163 72° East 186 214 4,600 -1,200 Descending FlightAware ADS-B
Sun 09:02:37 PM 40.3583 -74.4966 72° East 189 217 4,200 -1,371 Descending FlightAware ADS-B
Sun 09:02:53 PM 40.3627 -74.4789 72° East 190 219 3,800 -1,235 Descending FlightAware ADS-B
Sun 09:03:11 PM 40.3678 -74.4593 71° East 188 216 3,500 -615 Descending FlightAware ADS-B
Sun 09:03:32 PM 40.3736 -74.4377 71° East 182 209 3,400 -154 Descending FlightAware ADS-B
Sun 09:03:50 PM 40.3782 -74.4207 70° East 182 209 3,400 -409 Level FlightAware ADS-B
Sun 09:04:16 PM 40.3850 -74.3962 70° East 163 188 3,100 -857 Descending FlightAware ADS-B
Sun 09:05:00 PM 40.4000 -74.3600 61° Northeast 155 178 2,400 -700 Descending FlightAware ADS-B
Sun 09:05:16 PM 40.4099 -74.3505 36° Northeast 161 185 2,400  Level FlightAware ADS-B
Sun 09:05:55 PM 40.4350 -74.3340 27° Northeast 161 185 2,400  Level FlightAware ADS-B
Sun 09:06:25 PM 40.4560 -74.3220 23° Northeast 161 185 2,400  Level FlightAware ADS-B
Sun 09:06:39 PM 40.4666 -74.3157 24° Northeast 2,400  Level FlightAware ADS-B
Sun 09:07:05 PM 40.4834 -74.3050 26° Northeast 162 186 2,400  Level FlightAware ADS-B
Sun 09:07:49 PM 40.5136 -74.2863 25° Northeast 161 185 2,400  Level FlightAware ADS-B
Sun 09:08:14 PM 40.5303 -74.2758 26° Northeast 161 185 2,400 -115 Level FlightAware ADS-B
Sun 09:08:41 PM 40.5487 -74.2643 25° Northeast 161 185 2,300 -590 Descending FlightAware ADS-B
Sun 09:09:15 PM 40.5700 -74.2510 25° Northeast 164 189 1,800 -1,043 Descending FlightAware ADS-B
Sun 09:09:27 PM 40.5799 -74.2448 25° Northeast 163 188 1,500 -1,111 Descending FlightAware ADS-B
Sun 09:09:42 PM 40.5902 -74.2384 25° Northeast 161 185 1,300 -762 Descending FlightAware ADS-B
Sun 09:10:30 PM 40.6170 -74.2210 26° Northeast 128 147 700 -814 Descending FlightAware ADS-B
Sun 09:10:41 PM 40.6250 -74.2166 23° Northeast 125 144 500 -720 Descending FlightAware ADS-B
Sun 09:11:20 PM 40.6430 -74.2060 24° Northeast 125 144 100 -375 Descending FlightAware ADS-B
Sun 09:11:45 PM 40.6560 -74.1980 25° Northeast 125 144 100  Level FlightAware ADS-B

Login

Don't have an account? Register now (free) for customized features, flight alerts, and more!